CheckWX is a tool to help pilots better visualize weather data.  It is not intended as a substitute for an official pre-flight weather briefing.

17:25:03 UTC

LOWS METAR
Salzburg Airport
Salzburg, Austria
Current

35 mins ago

LOWS 181650Z 16006KT 9999 FEW070 SCT300 24/13 Q1013 NOSIG
Observed
Jul-18 @ 16:50 UTC
Wind
  • 160° at 6 KTS
Visibility
10,000+ meters
Flight Rules
VFR
Cloud Levels
  • Few at 7,000' AGL
  • Scattered at 30,000' AGL
Temperature
24°C / 75°F
Dewpoint
13°C / 55°F
Humidity
50%
Altimeter
29.91" Hg
Pressure
1012.92 hPa
Previous

1 hour ago

LOWS 181620Z 14006KT 110V170 9999 FEW070 SCT300 24/14 Q1013 NOSIG
Observed
Jul-18 @ 16:20 UTC
Wind
  • 140° at 6 KTS
Visibility
10,000+ meters
Flight Rules
VFR
Cloud Levels
  • Few at 7,000' AGL
  • Scattered at 30,000' AGL
Temperature
24°C / 75°F
Dewpoint
14°C / 57°F
Humidity
54%
Altimeter
29.91" Hg
Pressure
1012.92 hPa
Previous

2 hours ago

LOWS 181550Z 13008KT 9999 FEW070 SCT300 24/13 Q1013 TEMPO 32007KT
Observed
Jul-18 @ 15:50 UTC
Wind
  • 130° at 8 KTS
Visibility
10,000+ meters
Flight Rules
VFR
Cloud Levels
  • Few at 7,000' AGL
  • Scattered at 30,000' AGL
Temperature
24°C / 75°F
Dewpoint
13°C / 55°F
Humidity
50%
Altimeter
29.91" Hg
Pressure
1012.92 hPa